sensor_id;sensor_type;location;lat;lon;timestamp;pressure;altitude;pressure_sealevel;temperature;humidity
14882;BME280;7533;51.278;12.588;2023-04-15T00:03:30;99068.88;;;24.25;59.75
14882;BME280;7533;51.278;12.588;2023-04-15T00:08:35;99069.31;;;24.21;59.75
14882;BME280;7533;51.278;12.588;2023-04-15T00:13:39;99066.00;;;24.09;59.83
14882;BME280;7533;51.278;12.588;2023-04-15T00:18:43;99058.50;;;24.03;59.86
14882;BME280;7533;51.278;12.588;2023-04-15T00:23:46;99058.28;;;23.96;59.93
14882;BME280;7533;51.278;12.588;2023-04-15T00:28:54;99049.06;;;23.89;60.27
14882;BME280;7533;51.278;12.588;2023-04-15T00:33:57;99049.66;;;23.83;60.14
14882;BME280;7533;51.278;12.588;2023-04-15T00:39:00;99048.41;;;23.78;60.26
14882;BME280;7533;51.278;12.588;2023-04-15T00:44:05;99053.41;;;23.72;60.32
14882;BME280;7533;51.278;12.588;2023-04-15T00:49:08;99041.38;;;23.67;60.53
14882;BME280;7533;51.278;12.588;2023-04-15T00:54:11;99043.53;;;23.63;60.60
14882;BME280;7533;51.278;12.588;2023-04-15T00:59:16;99037.53;;;23.60;60.62
14882;BME280;7533;51.278;12.588;2023-04-15T01:04:20;99036.44;;;23.53;60.80
14882;BME280;7533;51.278;12.588;2023-04-15T01:09:23;99034.19;;;23.48;60.74
14882;BME280;7533;51.278;12.588;2023-04-15T01:14:27;99034.94;;;23.40;60.88
14882;BME280;7533;51.278;12.588;2023-04-15T01:19:30;99037.53;;;23.32;61.22
14882;BME280;7533;51.278;12.588;2023-04-15T01:24:34;99025.91;;;23.22;61.39
14882;BME280;7533;51.278;12.588;2023-04-15T01:29:40;99023.13;;;23.14;61.60
14882;BME280;7533;51.278;12.588;2023-04-15T01:34:43;99023.84;;;23.06;62.08
14882;BME280;7533;51.278;12.588;2023-04-15T01:39:46;99015.06;;;22.94;62.39
14882;BME280;7533;51.278;12.588;2023-04-15T01:44:51;99000.47;;;22.78;62.76
14882;BME280;7533;51.278;12.588;2023-04-15T01:49:54;98994.38;;;22.66;63.30
14882;BME280;7533;51.278;12.588;2023-04-15T01:54:57;99002.06;;;22.61;63.51
14882;BME280;7533;51.278;12.588;2023-04-15T02:00:01;99002.06;;;22.61;63.74
14882;BME280;7533;51.278;12.588;2023-04-15T02:05:13;99005.34;;;22.55;63.96
14882;BME280;7533;51.278;12.588;2023-04-15T02:10:21;98989.88;;;22.47;64.14
14882;BME280;7533;51.278;12.588;2023-04-15T02:15:25;98986.03;;;22.50;64.14
14882;BME280;7533;51.278;12.588;2023-04-15T02:20:28;98986.50;;;22.45;64.18
14882;BME280;7533;51.278;12.588;2023-04-15T02:25:32;98977.69;;;22.43;64.16
14882;BME280;7533;51.278;12.588;2023-04-15T02:30:39;98976.56;;;22.36;64.45
14882;BME280;7533;51.278;12.588;2023-04-15T02:35:42;98972.19;;;22.35;64.59
14882;BME280;7533;51.278;12.588;2023-04-15T02:40:45;98981.13;;;22.35;64.52
14882;BME280;7533;51.278;12.588;2023-04-15T02:45:51;98973.28;;;22.32;64.64
14882;BME280;7533;51.278;12.588;2023-04-15T02:51:10;98980.41;;;22.24;64.66
14882;BME280;7533;51.278;12.588;2023-04-15T02:56:13;98976.03;;;22.23;64.89
14882;BME280;7533;51.278;12.588;2023-04-15T03:01:18;98976.16;;;22.21;64.95
14882;BME280;7533;51.278;12.588;2023-04-15T03:06:21;98974.03;;;22.15;65.18
14882;BME280;7533;51.278;12.588;2023-04-15T03:11:25;98973.19;;;22.14;65.18
14882;BME280;7533;51.278;12.588;2023-04-15T03:16:30;98979.56;;;22.13;65.42
14882;BME280;7533;51.278;12.588;2023-04-15T03:21:32;98970.03;;;22.09;65.44
14882;BME280;7533;51.278;12.588;2023-04-15T03:26:35;98965.91;;;22.05;65.36
14882;BME280;7533;51.278;12.588;2023-04-15T03:31:46;98959.97;;;22.02;65.69
14882;BME280;7533;51.278;12.588;2023-04-15T03:36:50;98964.63;;;22.00;65.54
14882;BME280;7533;51.278;12.588;2023-04-15T03:41:53;98965.94;;;21.96;65.81
14882;BME280;7533;51.278;12.588;2023-04-15T03:46:57;98966.34;;;21.91;66.01
14882;BME280;7533;51.278;12.588;2023-04-15T03:51:59;98971.03;;;21.89;65.94
14882;BME280;7533;51.278;12.588;2023-04-15T03:57:02;98961.53;;;21.85;66.20
14882;BME280;7533;51.278;12.588;2023-04-15T04:02:07;98959.69;;;21.85;66.46
14882;BME280;7533;51.278;12.588;2023-04-15T04:07:14;98955.13;;;21.76;66.60
14882;BME280;7533;51.278;12.588;2023-04-15T04:12:17;98967.75;;;21.76;66.51
14882;BME280;7533;51.278;12.588;2023-04-15T04:17:21;98955.41;;;21.73;66.70
14882;BME280;7533;51.278;12.588;2023-04-15T04:22:24;98953.84;;;21.71;66.90
14882;BME280;7533;51.278;12.588;2023-04-15T04:27:27;98956.69;;;21.69;66.85
14882;BME280;7533;51.278;12.588;2023-04-15T04:32:31;98960.78;;;21.63;66.93
14882;BME280;7533;51.278;12.588;2023-04-15T04:37:34;98961.03;;;21.60;67.12
14882;BME280;7533;51.278;12.588;2023-04-15T04:42:37;98957.66;;;21.58;67.33
14882;BME280;7533;51.278;12.588;2023-04-15T04:47:42;98963.34;;;21.55;67.35
14882;BME280;7533;51.278;12.588;2023-04-15T04:52:44;98969.97;;;21.51;67.54
14882;BME280;7533;51.278;12.588;2023-04-15T04:57:47;98963.84;;;21.49;67.51
14882;BME280;7533;51.278;12.588;2023-04-15T05:02:51;98952.53;;;21.46;67.75
14882;BME280;7533;51.278;12.588;2023-04-15T05:07:54;98944.72;;;21.43;67.90
14882;BME280;7533;51.278;12.588;2023-04-15T05:12:57;98948.72;;;21.38;68.06
14882;BME280;7533;51.278;12.588;2023-04-15T05:18:02;98948.72;;;21.38;68.12
14882;BME280;7533;51.278;12.588;2023-04-15T05:23:05;98953.09;;;21.39;68.21
14882;BME280;7533;51.278;12.588;2023-04-15T05:28:07;98948.97;;;21.35;68.22
14882;BME280;7533;51.278;12.588;2023-04-15T05:33:11;98946.28;;;21.35;68.42
14882;BME280;7533;51.278;12.588;2023-04-15T05:38:14;98954.63;;;21.32;68.74
14882;BME280;7533;51.278;12.588;2023-04-15T05:43:17;98950.13;;;21.33;68.79
14882;BME280;7533;51.278;12.588;2023-04-15T05:48:21;98947.69;;;21.30;68.74
14882;BME280;7533;51.278;12.588;2023-04-15T05:53:24;98961.38;;;21.27;68.59
14882;BME280;7533;51.278;12.588;2023-04-15T05:58:27;98959.66;;;21.26;68.54
14882;BME280;7533;51.278;12.588;2023-04-15T06:03:31;98951.75;;;21.24;68.33
14882;BME280;7533;51.278;12.588;2023-04-15T06:08:35;98955.56;;;21.22;68.56
14882;BME280;7533;51.278;12.588;2023-04-15T06:13:37;98955.56;;;21.22;68.48
14882;BME280;7533;51.278;12.588;2023-04-15T06:18:42;98955.84;;;21.19;68.59
14882;BME280;7533;51.278;12.588;2023-04-15T06:23:45;98952.44;;;21.17;68.60
14882;BME280;7533;51.278;12.588;2023-04-15T06:28:48;98954.28;;;21.16;68.84
14882;BME280;7533;51.278;12.588;2023-04-15T06:33:52;98955.38;;;21.13;68.58
14882;BME280;7533;51.278;12.588;2023-04-15T06:38:55;98950.84;;;21.14;68.47
14882;BME280;7533;51.278;12.588;2023-04-15T06:43:58;98950.84;;;21.14;68.48
14882;BME280;7533;51.278;12.588;2023-04-15T06:49:02;98965.56;;;21.10;68.52
14882;BME280;7533;51.278;12.588;2023-04-15T06:54:05;98972.22;;;21.16;68.70
14882;BME280;7533;51.278;12.588;2023-04-15T06:59:08;98978.59;;;21.14;68.84
14882;BME280;7533;51.278;12.588;2023-04-15T07:04:12;98979.34;;;21.17;68.41
14882;BME280;7533;51.278;12.588;2023-04-15T07:09:15;98969.59;;;21.25;66.48
14882;BME280;7533;51.278;12.588;2023-04-15T07:14:18;98971.75;;;21.31;66.08
14882;BME280;7533;51.278;12.588;2023-04-15T07:19:22;98975.63;;;21.38;64.32
14882;BME280;7533;51.278;12.588;2023-04-15T07:24:25;98970.38;;;21.47;63.12
14882;BME280;7533;51.278;12.588;2023-04-15T07:29:28;98978.19;;;21.50;61.92
14882;BME280;7533;51.278;12.588;2023-04-15T07:34:33;98985.00;;;21.54;61.38
14882;BME280;7533;51.278;12.588;2023-04-15T07:39:36;98980.88;;;21.59;60.90
14882;BME280;7533;51.278;12.588;2023-04-15T07:44:38;98991.84;;;21.68;60.66
14882;BME280;7533;51.278;12.588;2023-04-15T07:49:43;98986.03;;;21.72;60.46
14882;BME280;7533;51.278;12.588;2023-04-15T07:54:46;98991.13;;;21.75;60.89
14882;BME280;7533;51.278;12.588;2023-04-15T07:59:48;98993.69;;;21.86;62.47
14882;BME280;7533;51.278;12.588;2023-04-15T08:04:53;98997.81;;;21.90;61.40
14882;BME280;7533;51.278;12.588;2023-04-15T08:11:48;98998.25;;;22.44;61.80
14882;BME280;7533;51.278;12.588;2023-04-15T08:16:51;99001.81;;;22.25;61.85
14882;BME280;7533;51.278;12.588;2023-04-15T08:21:54;99006.63;;;22.22;62.12
14882;BME280;7533;51.278;12.588;2023-04-15T08:26:59;99012.56;;;22.74;61.28
14882;BME280;7533;51.278;12.588;2023-04-15T08:32:05;99021.63;;;22.73;61.78
14882;BME280;7533;51.278;12.588;2023-04-15T08:37:08;99016.25;;;22.63;63.61
14882;BME280;7533;51.278;12.588;2023-04-15T08:42:16;99022.25;;;22.57;62.88
14882;BME280;7533;51.278;12.588;2023-04-15T08:47:20;99025.19;;;22.63;63.11
14882;BME280;7533;51.278;12.588;2023-04-15T08:52:25;99026.31;;;22.61;62.89
14882;BME280;7533;51.278;12.588;2023-04-15T08:57:30;99033.41;;;22.71;62.90
14882;BME280;7533;51.278;12.588;2023-04-15T09:02:33;99034.41;;;22.70;62.77
14882;BME280;7533;51.278;12.588;2023-04-15T09:07:36;99032.56;;;22.71;62.58
14882;BME280;7533;51.278;12.588;2023-04-15T09:12:40;99037.53;;;22.76;62.60
14882;BME280;7533;51.278;12.588;2023-04-15T09:17:44;99037.53;;;22.66;62.77
14882;BME280;7533;51.278;12.588;2023-04-15T09:22:47;99040.38;;;22.64;62.94
14882;BME280;7533;51.278;12.588;2023-04-15T09:27:53;99044.94;;;22.64;62.79
14882;BME280;7533;51.278;12.588;2023-04-15T09:32:57;99057.41;;;22.65;62.39
14882;BME280;7533;51.278;12.588;2023-04-15T09:38:02;99057.13;;;22.68;62.36
14882;BME280;7533;51.278;12.588;2023-04-15T09:43:08;99061.38;;;22.70;61.83
14882;BME280;7533;51.278;12.588;2023-04-15T09:48:16;99061.22;;;22.72;62.13
14882;BME280;7533;51.278;12.588;2023-04-15T09:53:20;99063.22;;;22.70;61.67
14882;BME280;7533;51.278;12.588;2023-04-15T09:58:26;99065.94;;;22.70;61.80
14882;BME280;7533;51.278;12.588;2023-04-15T10:03:30;99068.78;;;22.68;61.59
14882;BME280;7533;51.278;12.588;2023-04-15T10:08:33;99072.75;;;22.74;61.92
14882;BME280;7533;51.278;12.588;2023-04-15T10:19:08;99081.34;;;23.63;59.61
14882;BME280;7533;51.278;12.588;2023-04-15T10:24:11;99082.34;;;23.15;60.30
14882;BME280;7533;51.278;12.588;2023-04-15T10:29:15;99079.81;;;23.04;60.75
14882;BME280;7533;51.278;12.588;2023-04-15T10:34:33;99088.91;;;23.13;60.46
14882;BME280;7533;51.278;12.588;2023-04-15T10:39:38;99090.31;;;23.07;60.50
14882;BME280;7533;51.278;12.588;2023-04-15T10:44:43;99088.66;;;22.96;60.80
14882;BME280;7533;51.278;12.588;2023-04-15T10:49:49;99094.16;;;23.05;61.71
14882;BME280;7533;51.278;12.588;2023-04-15T10:55:02;99098.84;;;22.83;61.54
14882;BME280;7533;51.278;12.588;2023-04-15T11:00:11;99109.50;;;23.04;63.62
14882;BME280;7533;51.278;12.588;2023-04-15T11:05:17;99112.69;;;23.37;64.82
14882;BME280;7533;51.278;12.588;2023-04-15T11:10:51;99116.41;;;23.26;65.24
14882;BME280;7533;51.278;12.588;2023-04-15T11:15:59;99122.13;;;23.60;67.99
14882;BME280;7533;51.278;12.588;2023-04-15T11:21:07;99127.69;;;23.02;64.62
14882;BME280;7533;51.278;12.588;2023-04-15T11:26:10;99128.97;;;22.98;63.56
14882;BME280;7533;51.278;12.588;2023-04-15T11:31:15;99137.56;;;23.31;67.17
14882;BME280;7533;51.278;12.588;2023-04-15T11:36:23;99137.47;;;23.13;64.04
14882;BME280;7533;51.278;12.588;2023-04-15T11:41:27;99142.72;;;23.05;64.24
14882;BME280;7533;51.278;12.588;2023-04-15T11:46:30;99155.38;;;23.04;63.41
14882;BME280;7533;51.278;12.588;2023-04-15T11:51:34;99156.66;;;23.10;62.98
14882;BME280;7533;51.278;12.588;2023-04-15T11:56:37;99165.16;;;23.05;62.92
14882;BME280;7533;51.278;12.588;2023-04-15T12:01:46;99171.13;;;23.09;62.75
14882;BME280;7533;51.278;12.588;2023-04-15T12:06:52;99179.50;;;23.25;62.82
14882;BME280;7533;51.278;12.588;2023-04-15T12:11:56;99177.13;;;23.12;63.63
14882;BME280;7533;51.278;12.588;2023-04-15T12:17:01;99184.78;;;22.98;63.66
14882;BME280;7533;51.278;12.588;2023-04-15T12:22:09;99191.03;;;23.08;63.21
14882;BME280;7533;51.278;12.588;2023-04-15T12:27:13;99197.28;;;23.08;62.72
14882;BME280;7533;51.278;12.588;2023-04-15T12:32:17;99208.78;;;23.10;62.63
14882;BME280;7533;51.278;12.588;2023-04-15T12:37:23;99208.22;;;23.07;62.86
14882;BME280;7533;51.278;12.588;2023-04-15T12:42:26;99212.75;;;23.16;62.79
14882;BME280;7533;51.278;12.588;2023-04-15T12:47:29;99220.69;;;23.17;62.87
14882;BME280;7533;51.278;12.588;2023-04-15T12:52:33;99220.56;;;23.09;63.66
14882;BME280;7533;51.278;12.588;2023-04-15T12:57:36;99224.13;;;23.10;63.38
14882;BME280;7533;51.278;12.588;2023-04-15T13:02:42;99232.63;;;23.05;63.69
14882;BME280;7533;51.278;12.588;2023-04-15T13:07:47;99241.88;;;23.12;62.97
14882;BME280;7533;51.278;12.588;2023-04-15T13:14:53;99243.53;;;23.71;60.99
14882;BME280;7533;51.278;12.588;2023-04-15T13:19:55;99243.00;;;23.19;62.78
14882;BME280;7533;51.278;12.588;2023-04-15T13:24:58;99250.41;;;23.08;63.04
14882;BME280;7533;51.278;12.588;2023-04-15T13:30:03;99258.78;;;23.05;63.00
14882;BME280;7533;51.278;12.588;2023-04-15T13:35:07;99266.00;;;23.04;62.90
14882;BME280;7533;51.278;12.588;2023-04-15T13:40:10;99270.41;;;23.05;63.06
14882;BME280;7533;51.278;12.588;2023-04-15T13:45:14;99275.25;;;23.02;62.96
14882;BME280;7533;51.278;12.588;2023-04-15T13:50:17;99281.34;;;22.94;63.27
14882;BME280;7533;51.278;12.588;2023-04-15T13:55:20;99286.47;;;22.97;63.10
14882;BME280;7533;51.278;12.588;2023-04-15T14:00:28;99294.41;;;22.89;63.51
14882;BME280;7533;51.278;12.588;2023-04-15T14:05:31;99302.72;;;22.76;64.02
14882;BME280;7533;51.278;12.588;2023-04-15T14:10:34;99302.91;;;22.84;63.86
14882;BME280;7533;51.278;12.588;2023-04-15T14:15:38;99317.09;;;22.86;63.67
14882;BME280;7533;51.278;12.588;2023-04-15T14:20:41;99323.47;;;22.76;64.09
14882;BME280;7533;51.278;12.588;2023-04-15T14:25:44;99331.25;;;22.69;64.71
14882;BME280;7533;51.278;12.588;2023-04-15T14:30:50;99329.69;;;22.76;64.99
14882;BME280;7533;51.278;12.588;2023-04-15T14:35:54;99336.34;;;22.72;65.48
14882;BME280;7533;51.278;12.588;2023-04-15T14:40:57;99345.03;;;22.76;65.90
14882;BME280;7533;51.278;12.588;2023-04-15T14:46:01;99348.72;;;22.75;65.89
14882;BME280;7533;51.278;12.588;2023-04-15T14:51:04;99358.03;;;22.61;65.70
14882;BME280;7533;51.278;12.588;2023-04-15T14:56:07;99372.66;;;22.58;65.42
14882;BME280;7533;51.278;12.588;2023-04-15T15:01:11;99373.22;;;22.52;64.94
14882;BME280;7533;51.278;12.588;2023-04-15T15:06:14;99379.75;;;22.59;64.35
14882;BME280;7533;51.278;12.588;2023-04-15T15:11:17;99388.56;;;22.61;63.87
14882;BME280;7533;51.278;12.588;2023-04-15T15:16:21;99397.78;;;22.59;63.69
14882;BME280;7533;51.278;12.588;2023-04-15T15:21:24;99400.25;;;22.71;63.00
14882;BME280;7533;51.278;12.588;2023-04-15T15:26:28;99397.53;;;22.71;63.25
14882;BME280;7533;51.278;12.588;2023-04-15T15:31:33;99404.53;;;22.74;62.89
14882;BME280;7533;51.278;12.588;2023-04-15T15:36:36;99408.81;;;22.25;58.84
14882;BME280;7533;51.278;12.588;2023-04-15T15:41:39;99426.59;;;21.96;58.98
14882;BME280;7533;51.278;12.588;2023-04-15T15:46:43;99417.13;;;22.12;59.89
14882;BME280;7533;51.278;12.588;2023-04-15T15:51:46;99434.72;;;22.37;60.31
14882;BME280;7533;51.278;12.588;2023-04-15T15:56:50;99440.88;;;22.49;60.45
14882;BME280;7533;51.278;12.588;2023-04-15T16:01:54;99446.56;;;22.46;60.87
14882;BME280;7533;51.278;12.588;2023-04-15T16:06:57;99452.41;;;22.51;61.82
14882;BME280;7533;51.278;12.588;2023-04-15T16:12:00;99456.94;;;22.51;62.70
14882;BME280;7533;51.278;12.588;2023-04-15T16:17:05;99468.44;;;22.53;63.48
14882;BME280;7533;51.278;12.588;2023-04-15T16:22:08;99467.72;;;22.51;64.26
14882;BME280;7533;51.278;12.588;2023-04-15T16:27:11;99470.75;;;22.57;64.60
14882;BME280;7533;51.278;12.588;2023-04-15T16:32:17;99480.72;;;22.66;63.96
14882;BME280;7533;51.278;12.588;2023-04-15T16:37:20;99485.56;;;22.73;63.42
14882;BME280;7533;51.278;12.588;2023-04-15T16:42:23;99488.19;;;22.84;62.96
14882;BME280;7533;51.278;12.588;2023-04-15T16:47:28;99487.94;;;22.87;62.24
14882;BME280;7533;51.278;12.588;2023-04-15T16:52:31;99490.72;;;22.96;61.71
14882;BME280;7533;51.278;12.588;2023-04-15T16:57:34;99498.22;;;22.93;61.65
14882;BME280;7533;51.278;12.588;2023-04-15T17:02:58;99504.31;;;22.95;61.20
14882;BME280;7533;51.278;12.588;2023-04-15T17:08:03;99511.16;;;22.99;61.11
14882;BME280;7533;51.278;12.588;2023-04-15T17:13:05;99514.31;;;23.04;61.03
14882;BME280;7533;51.278;12.588;2023-04-15T17:18:10;99528.41;;;23.08;60.83
14882;BME280;7533;51.278;12.588;2023-04-15T17:23:13;99537.81;;;23.13;60.54
14882;BME280;7533;51.278;12.588;2023-04-15T17:28:16;99542.22;;;23.14;60.59
14882;BME280;7533;51.278;12.588;2023-04-15T17:33:20;99548.19;;;23.18;60.33
14882;BME280;7533;51.278;12.588;2023-04-15T17:38:43;99551.47;;;23.21;60.16
14882;BME280;7533;51.278;12.588;2023-04-15T17:43:46;99559.41;;;23.23;59.89
14882;BME280;7533;51.278;12.588;2023-04-15T17:48:50;99563.72;;;23.26;59.93
14882;BME280;7533;51.278;12.588;2023-04-15T17:53:53;99576.34;;;23.25;59.84
14882;BME280;7533;51.278;12.588;2023-04-15T17:58:56;99585.75;;;23.31;59.70
14882;BME280;7533;51.278;12.588;2023-04-15T18:04:02;99589.91;;;23.35;59.89
14882;BME280;7533;51.278;12.588;2023-04-15T18:09:06;99593.19;;;23.38;59.88
14882;BME280;7533;51.278;12.588;2023-04-15T18:14:09;99601.59;;;23.45;59.77
14882;BME280;7533;51.278;12.588;2023-04-15T18:19:17;99614.53;;;23.51;59.68
14882;BME280;7533;51.278;12.588;2023-04-15T18:24:22;99626.09;;;23.53;59.55
14882;BME280;7533;51.278;12.588;2023-04-15T18:29:24;99632.66;;;23.60;59.55
14882;BME280;7533;51.278;12.588;2023-04-15T18:34:29;99634.66;;;23.58;59.52
14882;BME280;7533;51.278;12.588;2023-04-15T18:39:32;99640.75;;;23.60;59.51
14882;BME280;7533;51.278;12.588;2023-04-15T18:44:34;99647.50;;;23.66;59.56
14882;BME280;7533;51.278;12.588;2023-04-15T18:49:39;99652.31;;;23.62;59.46
14882;BME280;7533;51.278;12.588;2023-04-15T18:54:41;99661.28;;;23.63;59.65
14882;BME280;7533;51.278;12.588;2023-04-15T18:59:44;99665.41;;;23.67;59.50
14882;BME280;7533;51.278;12.588;2023-04-15T19:04:49;99669.09;;;23.66;59.34
14882;BME280;7533;51.278;12.588;2023-04-15T19:11:22;99683.78;;;23.73;59.19
14882;BME280;7533;51.278;12.588;2023-04-15T19:16:25;99681.75;;;23.65;59.35
14882;BME280;7533;51.278;12.588;2023-04-15T19:21:28;99689.78;;;23.77;59.10
14882;BME280;7533;51.278;12.588;2023-04-15T19:26:34;99693.63;;;23.74;59.16
14882;BME280;7533;51.278;12.588;2023-04-15T19:31:37;99695.56;;;23.72;58.90
